sensor_id;sensor_type;location;lat;lon;timestamp;pressure;altitude;pressure_sealevel;temperature;humidity
75942;BME280;64622;46.220;19.878;2023-04-24T00:00:47;99817.78;;;12.24;79.08
75942;BME280;64622;46.220;19.878;2023-04-24T00:03:14;99810.97;;;12.36;77.89
75942;BME280;64622;46.220;19.878;2023-04-24T00:05:40;99818.56;;;12.47;76.94
75942;BME280;64622;46.220;19.878;2023-04-24T00:08:07;99809.03;;;12.44;76.69
75942;BME280;64622;46.220;19.878;2023-04-24T00:10:34;99817.66;;;12.54;75.92
75942;BME280;64622;46.220;19.878;2023-04-24T00:13:01;99802.09;;;12.50;75.93
75942;BME280;64622;46.220;19.878;2023-04-24T00:15:28;99800.06;;;12.52;75.67
75942;BME280;64622;46.220;19.878;2023-04-24T00:17:55;99797.75;;;12.49;75.84
75942;BME280;64622;46.220;19.878;2023-04-24T00:20:21;99788.84;;;12.34;76.56
75942;BME280;64622;46.220;19.878;2023-04-24T00:22:48;99782.16;;;12.30;76.89
75942;BME280;64622;46.220;19.878;2023-04-24T00:25:16;99773.56;;;12.34;76.88
75942;BME280;64622;46.220;19.878;2023-04-24T00:27:42;99777.19;;;12.41;76.71
75942;BME280;64622;46.220;19.878;2023-04-24T00:30:09;99768.69;;;12.38;76.77
75942;BME280;64622;46.220;19.878;2023-04-24T00:32:42;99774.41;;;12.49;76.50
75942;BME280;64622;46.220;19.878;2023-04-24T00:35:09;99791.25;;;12.43;77.17
75942;BME280;64622;46.220;19.878;2023-04-24T00:37:36;99778.34;;;12.24;78.17
75942;BME280;64622;46.220;19.878;2023-04-24T00:40:03;99780.50;;;12.29;78.24
75942;BME280;64622;46.220;19.878;2023-04-24T00:42:30;99772.16;;;12.24;78.51
75942;BME280;64622;46.220;19.878;2023-04-24T00:44:58;99779.75;;;12.20;78.53
75942;BME280;64622;46.220;19.878;2023-04-24T00:47:25;99788.44;;;12.22;79.19
75942;BME280;64622;46.220;19.878;2023-04-24T00:49:52;99777.56;;;12.01;82.62
75942;BME280;64622;46.220;19.878;2023-04-24T00:52:19;99775.53;;;11.81;85.05
75942;BME280;64622;46.220;19.878;2023-04-24T00:54:46;99771.03;;;11.81;89.23
75942;BME280;64622;46.220;19.878;2023-04-24T00:57:14;99783.12;;;11.77;88.89
75942;BME280;64622;46.220;19.878;2023-04-24T00:59:45;99769.25;;;11.74;88.81
75942;BME280;64622;46.220;19.878;2023-04-24T01:02:12;99754.06;;;11.66;91.83
75942;BME280;64622;46.220;19.878;2023-04-24T01:04:39;99748.41;;;11.53;89.90
75942;BME280;64622;46.220;19.878;2023-04-24T01:07:07;99757.16;;;11.47;90.44
75942;BME280;64622;46.220;19.878;2023-04-24T01:09:40;99741.50;;;11.36;91.78
75942;BME280;64622;46.220;19.878;2023-04-24T01:12:10;99723.97;;;11.26;95.42
75942;BME280;64622;46.220;19.878;2023-04-24T01:14:37;99741.78;;;11.19;94.54
75942;BME280;64622;46.220;19.878;2023-04-24T01:17:04;99743.84;;;11.01;97.84
75942;BME280;64622;46.220;19.878;2023-04-24T01:19:32;99729.56;;;11.16;96.47
75942;BME280;64622;46.220;19.878;2023-04-24T01:22:02;99713.78;;;11.21;97.04
75942;BME280;64622;46.220;19.878;2023-04-24T01:24:29;99712.13;;;11.20;95.96
75942;BME280;64622;46.220;19.878;2023-04-24T01:26:56;99712.31;;;11.19;95.11
75942;BME280;64622;46.220;19.878;2023-04-24T01:29:24;99715.69;;;11.13;94.71
75942;BME280;64622;46.220;19.878;2023-04-24T01:31:51;99709.63;;;11.19;94.51
75942;BME280;64622;46.220;19.878;2023-04-24T01:34:18;99719.16;;;11.21;95.34
75942;BME280;64622;46.220;19.878;2023-04-24T01:36:45;99718.97;;;11.23;95.34
75942;BME280;64622;46.220;19.878;2023-04-24T01:39:13;99718.16;;;11.14;94.58
75942;BME280;64622;46.220;19.878;2023-04-24T01:41:40;99713.94;;;10.97;95.41
75942;BME280;64622;46.220;19.878;2023-04-24T01:44:07;99719.41;;;11.04;95.94
75942;BME280;64622;46.220;19.878;2023-04-24T01:46:35;99721.31;;;10.95;96.46
75942;BME280;64622;46.220;19.878;2023-04-24T01:49:04;99719.91;;;11.07;95.72
75942;BME280;64622;46.220;19.878;2023-04-24T01:51:31;99709.72;;;11.03;96.03
75942;BME280;64622;46.220;19.878;2023-04-24T01:53:57;99706.69;;;11.06;96.48
75942;BME280;64622;46.220;19.878;2023-04-24T01:56:25;99703.03;;;10.99;96.82
75942;BME280;64622;46.220;19.878;2023-04-24T01:58:52;99706.53;;;10.99;97.25
75942;BME280;64622;46.220;19.878;2023-04-24T02:01:20;99714.47;;;10.93;97.57
75942;BME280;64622;46.220;19.878;2023-04-24T02:03:47;99713.09;;;10.97;97.62
75942;BME280;64622;46.220;19.878;2023-04-24T02:06:14;99696.06;;;10.90;97.69
75942;BME280;64622;46.220;19.878;2023-04-24T02:08:41;99690.56;;;10.83;97.93
75942;BME280;64622;46.220;19.878;2023-04-24T02:11:11;99667.22;;;10.69;98.19
75942;BME280;64622;46.220;19.878;2023-04-24T02:13:38;99685.03;;;10.85;98.69
75942;BME280;64622;46.220;19.878;2023-04-24T02:16:04;99682.03;;;10.88;98.62
75942;BME280;64622;46.220;19.878;2023-04-24T02:18:30;99677.34;;;10.82;98.62
75942;BME280;64622;46.220;19.878;2023-04-24T02:20:57;99696.63;;;10.77;99.27
75942;BME280;64622;46.220;19.878;2023-04-24T02:23:24;99673.56;;;10.68;99.91
75942;BME280;64622;46.220;19.878;2023-04-24T02:25:50;99684.97;;;10.62;99.12
75942;BME280;64622;46.220;19.878;2023-04-24T02:28:18;99686.81;;;10.62;100.00
75942;BME280;64622;46.220;19.878;2023-04-24T02:30:44;99675.63;;;10.58;100.00
75942;BME280;64622;46.220;19.878;2023-04-24T02:33:11;99687.66;;;10.62;100.00
75942;BME280;64622;46.220;19.878;2023-04-24T02:35:38;99675.63;;;10.58;100.00
75942;BME280;64622;46.220;19.878;2023-04-24T02:38:04;99694.34;;;10.66;100.00
75942;BME280;64622;46.220;19.878;2023-04-24T02:40:31;99688.69;;;10.61;100.00
75942;BME280;64622;46.220;19.878;2023-04-24T02:42:58;99683.81;;;10.57;100.00
75942;BME280;64622;46.220;19.878;2023-04-24T02:45:25;99675.63;;;10.58;100.00
75942;BME280;64622;46.220;19.878;2023-04-24T02:47:52;99683.97;;;10.63;100.00
75942;BME280;64622;46.220;19.878;2023-04-24T02:50:18;99683.47;;;10.68;100.00
75942;BME280;64622;46.220;19.878;2023-04-24T02:52:45;99686.97;;;10.68;100.00
75942;BME280;64622;46.220;19.878;2023-04-24T02:55:12;99680.72;;;10.76;100.00
75942;BME280;64622;46.220;19.878;2023-04-24T02:57:39;99695.91;;;10.83;100.00
75942;BME280;64622;46.220;19.878;2023-04-24T03:00:06;99689.75;;;10.83;100.00
75942;BME280;64622;46.220;19.878;2023-04-24T03:02:33;99697.94;;;10.81;100.00
75942;BME280;64622;46.220;19.878;2023-04-24T03:05:00;99706.69;;;10.75;100.00
75942;BME280;64622;46.220;19.878;2023-04-24T03:07:28;99693.84;;;10.63;100.00
75942;BME280;64622;46.220;19.878;2023-04-24T03:09:55;99691.53;;;10.52;100.00
75942;BME280;64622;46.220;19.878;2023-04-24T03:12:22;99700.75;;;10.49;100.00
75942;BME280;64622;46.220;19.878;2023-04-24T03:14:50;99707.31;;;10.39;100.00
75942;BME280;64622;46.220;19.878;2023-04-24T03:17:16;99706.84;;;10.35;100.00
75942;BME280;64622;46.220;19.878;2023-04-24T03:19:43;99705.19;;;10.26;100.00
75942;BME280;64622;46.220;19.878;2023-04-24T03:22:11;99703.19;;;10.20;100.00
75942;BME280;64622;46.220;19.878;2023-04-24T03:24:38;99703.69;;;10.16;100.00
75942;BME280;64622;46.220;19.878;2023-04-24T03:27:05;99696.03;;;10.05;100.00
75942;BME280;64622;46.220;19.878;2023-04-24T03:29:33;99704.03;;;9.97;100.00
75942;BME280;64622;46.220;19.878;2023-04-24T03:31:59;99708.72;;;9.95;100.00
75942;BME280;64622;46.220;19.878;2023-04-24T03:34:27;99698.84;;;9.87;100.00
75942;BME280;64622;46.220;19.878;2023-04-24T03:36:55;99711.53;;;9.93;100.00
75942;BME280;64622;46.220;19.878;2023-04-24T03:39:22;99716.88;;;9.93;100.00
75942;BME280;64622;46.220;19.878;2023-04-24T03:41:49;99713.72;;;9.90;100.00
75942;BME280;64622;46.220;19.878;2023-04-24T03:44:16;99713.06;;;9.88;100.00
75942;BME280;64622;46.220;19.878;2023-04-24T03:46:43;99721.25;;;9.86;100.00
75942;BME280;64622;46.220;19.878;2023-04-24T03:49:10;99724.44;;;9.74;100.00
75942;BME280;64622;46.220;19.878;2023-04-24T03:51:37;99729.44;;;9.69;100.00
75942;BME280;64622;46.220;19.878;2023-04-24T03:54:04;99717.25;;;9.66;100.00
75942;BME280;64622;46.220;19.878;2023-04-24T03:56:31;99726.94;;;9.75;100.00
75942;BME280;64622;46.220;19.878;2023-04-24T03:58:58;99728.94;;;9.73;100.00
75942;BME280;64622;46.220;19.878;2023-04-24T04:01:24;99715.44;;;9.67;100.00
75942;BME280;64622;46.220;19.878;2023-04-24T04:03:52;99719.91;;;9.66;100.00
75942;BME280;64622;46.220;19.878;2023-04-24T04:06:18;99722.75;;;9.65;100.00
75942;BME280;64622;46.220;19.878;2023-04-24T04:08:46;99727.63;;;9.69;100.00
75942;BME280;64622;46.220;19.878;2023-04-24T04:11:13;99715.22;;;9.68;100.00
75942;BME280;64622;46.220;19.878;2023-04-24T04:13:40;99720.78;;;9.67;100.00
75942;BME280;64622;46.220;19.878;2023-04-24T04:16:08;99712.06;;;9.73;100.00
75942;BME280;64622;46.220;19.878;2023-04-24T04:18:35;99723.75;;;9.80;100.00
75942;BME280;64622;46.220;19.878;2023-04-24T04:21:03;99707.56;;;9.81;100.00
75942;BME280;64622;46.220;19.878;2023-04-24T04:23:30;99697.72;;;9.82;100.00
75942;BME280;64622;46.220;19.878;2023-04-24T04:26:00;99700.03;;;9.85;100.00
75942;BME280;64622;46.220;19.878;2023-04-24T04:28:29;99705.88;;;9.96;100.00
75942;BME280;64622;46.220;19.878;2023-04-24T04:30:58;99717.41;;;10.05;100.00
75942;BME280;64622;46.220;19.878;2023-04-24T04:33:25;99711.56;;;10.09;100.00
75942;BME280;64622;46.220;19.878;2023-04-24T04:35:52;99715.06;;;10.18;100.00
75942;BME280;64622;46.220;19.878;2023-04-24T04:38:19;99721.56;;;10.23;100.00
75942;BME280;64622;46.220;19.878;2023-04-24T04:40:46;99715.88;;;10.26;100.00
75942;BME280;64622;46.220;19.878;2023-04-24T04:43:13;99717.53;;;10.27;100.00
75942;BME280;64622;46.220;19.878;2023-04-24T04:45:42;99716.69;;;10.27;100.00
75942;BME280;64622;46.220;19.878;2023-04-24T04:48:13;99723.06;;;10.26;100.00
75942;BME280;64622;46.220;19.878;2023-04-24T04:50:40;99732.41;;;10.30;100.00
75942;BME280;64622;46.220;19.878;2023-04-24T04:53:07;99740.09;;;10.33;100.00
75942;BME280;64622;46.220;19.878;2023-04-24T04:55:34;99735.09;;;10.30;100.00
75942;BME280;64622;46.220;19.878;2023-04-24T04:58:03;99735.41;;;10.43;100.00
75942;BME280;64622;46.220;19.878;2023-04-24T05:00:30;99744.03;;;10.61;100.00
75942;BME280;64622;46.220;19.878;2023-04-24T05:03:02;99748.66;;;10.75;100.00
75942;BME280;64622;46.220;19.878;2023-04-24T05:05:29;99735.88;;;10.93;100.00
75942;BME280;64622;46.220;19.878;2023-04-24T05:07:56;99722.91;;;11.04;100.00
75942;BME280;64622;46.220;19.878;2023-04-24T05:10:23;99719.50;;;11.18;100.00
75942;BME280;64622;46.220;19.878;2023-04-24T05:12:51;99726.94;;;11.31;100.00
75942;BME280;64622;46.220;19.878;2023-04-24T05:15:17;99731.22;;;11.48;100.00
75942;BME280;64622;46.220;19.878;2023-04-24T05:17:44;99731.66;;;11.29;100.00
75942;BME280;64622;46.220;19.878;2023-04-24T05:20:11;99741.03;;;11.33;100.00
75942;BME280;64622;46.220;19.878;2023-04-24T05:22:38;99737.69;;;11.53;100.00
75942;BME280;64622;46.220;19.878;2023-04-24T05:25:05;99737.38;;;11.48;100.00
75942;BME280;64622;46.220;19.878;2023-04-24T05:27:32;99725.94;;;11.54;100.00
75942;BME280;64622;46.220;19.878;2023-04-24T05:29:59;99696.00;;;11.51;100.00
75942;BME280;64622;46.220;19.878;2023-04-24T05:32:26;99704.00;;;11.36;100.00
75942;BME280;64622;46.220;19.878;2023-04-24T05:34:54;99710.41;;;11.27;100.00
75942;BME280;64622;46.220;19.878;2023-04-24T05:37:21;99716.78;;;11.26;100.00
75942;BME280;64622;46.220;19.878;2023-04-24T05:39:48;99699.69;;;11.27;100.00
75942;BME280;64622;46.220;19.878;2023-04-24T05:42:15;99711.84;;;11.38;100.00
75942;BME280;64622;46.220;19.878;2023-04-24T05:44:42;99724.06;;;11.40;100.00
75942;BME280;64622;46.220;19.878;2023-04-24T05:47:09;99700.00;;;11.32;100.00
75942;BME280;64622;46.220;19.878;2023-04-24T05:49:35;99694.97;;;11.29;100.00
75942;BME280;64622;46.220;19.878;2023-04-24T05:52:02;99688.09;;;11.35;100.00
75942;BME280;64622;46.220;19.878;2023-04-24T05:54:30;99722.91;;;11.35;100.00
75942;BME280;64622;46.220;19.878;2023-04-24T05:56:57;99717.59;;;11.27;100.00
75942;BME280;64622;46.220;19.878;2023-04-24T05:59:25;99724.94;;;11.33;100.00
75942;BME280;64622;46.220;19.878;2023-04-24T06:01:52;99723.75;;;11.35;100.00
75942;BME280;64622;46.220;19.878;2023-04-24T06:04:20;99729.13;;;11.35;100.00
75942;BME280;64622;46.220;19.878;2023-04-24T06:06:46;99730.53;;;11.46;100.00
75942;BME280;64622;46.220;19.878;2023-04-24T06:09:17;99711.72;;;11.54;100.00
75942;BME280;64622;46.220;19.878;2023-04-24T06:11:44;99716.91;;;11.55;100.00
75942;BME280;64622;46.220;19.878;2023-04-24T06:14:11;99720.91;;;11.59;100.00
75942;BME280;64622;46.220;19.878;2023-04-24T06:16:41;99719.59;;;11.55;100.00
75942;BME280;64622;46.220;19.878;2023-04-24T06:19:09;99722.06;;;11.57;100.00
75942;BME280;64622;46.220;19.878;2023-04-24T06:21:36;99734.31;;;11.59;100.00
75942;BME280;64622;46.220;19.878;2023-04-24T06:24:02;99754.06;;;11.58;100.00
75942;BME280;64622;46.220;19.878;2023-04-24T06:26:31;99769.28;;;11.66;100.00
75942;BME280;64622;46.220;19.878;2023-04-24T06:28:57;99773.19;;;11.55;100.00
75942;BME280;64622;46.220;19.878;2023-04-24T06:31:25;99794.78;;;11.62;100.00
75942;BME280;64622;46.220;19.878;2023-04-24T06:33:54;99789.78;;;11.51;100.00
75942;BME280;64622;46.220;19.878;2023-04-24T06:36:20;99786.09;;;11.52;100.00
75942;BME280;64622;46.220;19.878;2023-04-24T06:38:47;99810.53;;;11.57;100.00
75942;BME280;64622;46.220;19.878;2023-04-24T06:41:14;99805.16;;;11.57;100.00
75942;BME280;64622;46.220;19.878;2023-04-24T06:43:40;99806.66;;;11.67;100.00
75942;BME280;64622;46.220;19.878;2023-04-24T06:46:07;99788.19;;;11.72;100.00
75942;BME280;64622;46.220;19.878;2023-04-24T06:48:34;99800.56;;;11.73;100.00
75942;BME280;64622;46.220;19.878;2023-04-24T06:51:01;99798.66;;;11.82;100.00
75942;BME280;64622;46.220;19.878;2023-04-24T06:53:27;99801.88;;;11.77;100.00
75942;BME280;64622;46.220;19.878;2023-04-24T06:55:54;99788.31;;;11.79;100.00
75942;BME280;64622;46.220;19.878;2023-04-24T06:58:21;99792.59;;;11.88;100.00
75942;BME280;64622;46.220;19.878;2023-04-24T07:00:48;99776.59;;;11.94;100.00
75942;BME280;64622;46.220;19.878;2023-04-24T07:03:14;99780.87;;;12.03;100.00
75942;BME280;64622;46.220;19.878;2023-04-24T07:05:41;99780.16;;;12.09;100.00
75942;BME280;64622;46.220;19.878;2023-04-24T07:08:07;99778.78;;;12.13;100.00
75942;BME280;64622;46.220;19.878;2023-04-24T07:10:38;99773.84;;;12.25;100.00
75942;BME280;64622;46.220;19.878;2023-04-24T07:13:04;99772.75;;;12.34;100.00
75942;BME280;64622;46.220;19.878;2023-04-24T07:15:33;99769.16;;;12.41;100.00
75942;BME280;64622;46.220;19.878;2023-04-24T07:18:00;99761.34;;;12.32;100.00
75942;BME280;64622;46.220;19.878;2023-04-24T07:20:27;99768.31;;;12.41;100.00
75942;BME280;64622;46.220;19.878;2023-04-24T07:22:53;99766.63;;;12.40;100.00
75942;BME280;64622;46.220;19.878;2023-04-24T07:25:20;99770.34;;;12.39;100.00
75942;BME280;64622;46.220;19.878;2023-04-24T07:27:47;99760.53;;;12.31;100.00
75942;BME280;64622;46.220;19.878;2023-04-24T07:30:16;99767.00;;;12.37;100.00
75942;BME280;64622;46.220;19.878;2023-04-24T07:32:43;99770.06;;;12.34;100.00
75942;BME280;64622;46.220;19.878;2023-04-24T07:35:09;99767.38;;;12.34;100.00
75942;BME280;64622;46.220;19.878;2023-04-24T07:37:36;99766.00;;;12.38;100.00
75942;BME280;64622;46.220;19.878;2023-04-24T07:40:03;99757.75;;;12.39;100.00
75942;BME280;64622;46.220;19.878;2023-04-24T07:42:30;99761.09;;;12.56;100.00
75942;BME280;64622;46.220;19.878;2023-04-24T07:44:57;99759.72;;;12.74;100.00
75942;BME280;64622;46.220;19.878;2023-04-24T07:47:24;99744.31;;;12.83;100.00
75942;BME280;64622;46.220;19.878;2023-04-24T07:49:50;99733.31;;;12.92;100.00
75942;BME280;64622;46.220;19.878;2023-04-24T07:52:17;99734.97;;;13.08;100.00
75942;BME280;64622;46.220;19.878;2023-04-24T07:54:43;99732.38;;;13.14;100.00
75942;BME280;64622;46.220;19.878;2023-04-24T07:57:10;99736.34;;;13.18;100.00
75942;BME280;64622;46.220;19.878;2023-04-24T07:59:36;99748.66;;;13.27;100.00
75942;BME280;64622;46.220;19.878;2023-04-24T08:02:03;99743.16;;;13.35;100.00
75942;BME280;64622;46.220;19.878;2023-04-24T08:04:30;99739.59;;;13.49;100.00
75942;BME280;64622;46.220;19.878;2023-04-24T08:06:57;99745.81;;;13.50;100.00
75942;BME280;64622;46.220;19.878;2023-04-24T08:09:23;99740.69;;;13.76;100.00
75942;BME280;64622;46.220;19.878;2023-04-24T08:11:50;99739.47;;;13.99;100.00
75942;BME280;64622;46.220;19.878;2023-04-24T08:14:17;99749.47;;;14.26;100.00
75942;BME280;64622;46.220;19.878;2023-04-24T08:16:43;99749.84;;;14.02;100.00
75942;BME280;64622;46.220;19.878;2023-04-24T08:19:10;99746.25;;;13.95;100.00
75942;BME280;64622;46.220;19.878;2023-04-24T08:21:37;99757.91;;;14.02;100.00
75942;BME280;64622;46.220;19.878;2023-04-24T08:24:03;99772.41;;;14.01;100.00
75942;BME280;64622;46.220;19.878;2023-04-24T08:26:33;99753.47;;;14.37;100.00
75942;BME280;64622;46.220;19.878;2023-04-24T08:29:00;99778.72;;;14.36;100.00
75942;BME280;64622;46.220;19.878;2023-04-24T08:31:27;99766.91;;;14.37;100.00
75942;BME280;64622;46.220;19.878;2023-04-24T08:33:54;99777.50;;;14.66;100.00
75942;BME280;64622;46.220;19.878;2023-04-24T08:36:21;99764.28;;;14.43;100.00
75942;BME280;64622;46.220;19.878;2023-04-24T08:38:47;99771.78;;;14.82;100.00
75942;BME280;64622;46.220;19.878;2023-04-24T08:41:14;99774.97;;;14.92;100.00
75942;BME280;64622;46.220;19.878;2023-04-24T08:43:42;99776.31;;;15.15;99.59
75942;BME280;64622;46.220;19.878;2023-04-24T08:46:10;99765.50;;;15.02;100.00
75942;BME280;64622;46.220;19.878;2023-04-24T08:48:39;99769.44;;;15.06;100.00
75942;BME280;64622;46.220;19.878;2023-04-24T08:51:07;99768.44;;;15.14;100.00
75942;BME280;64622;46.220;19.878;2023-04-24T08:53:35;99755.56;;;15.09;99.61
75942;BME280;64622;46.220;19.878;2023-04-24T08:56:03;99754.25;;;15.39;98.92
75942;BME280;64622;46.220;19.878;2023-04-24T08:58:31;99758.66;;;15.53;96.43
75942;BME280;64622;46.220;19.878;2023-04-24T09:00:58;99755.63;;;15.95;95.14
75942;BME280;64622;46.220;19.878;2023-04-24T09:03:28;99758.72;;;15.86;93.08
75942;BME280;64622;46.220;19.878;2023-04-24T09:05:55;99759.38;;;16.07;93.49
75942;BME280;64622;46.220;19.878;2023-04-24T09:08:24;99757.50;;;15.88;93.14
75942;BME280;64622;46.220;19.878;2023-04-24T09:10:52;99773.25;;;15.91;93.40
75942;BME280;64622;46.220;19.878;2023-04-24T09:13:19;99784.03;;;15.72;94.93
75942;BME280;64622;46.220;19.878;2023-04-24T09:15:46;99794.59;;;15.67;96.04
75942;BME280;64622;46.220;19.878;2023-04-24T09:18:13;99790.09;;;15.93;96.70
75942;BME280;64622;46.220;19.878;2023-04-24T09:21:03;99787.78;;;15.84;96.28
75942;BME280;64622;46.220;19.878;2023-04-24T09:23:31;99790.00;;;15.54;97.59
75942;BME280;64622;46.220;19.878;2023-04-24T09:26:00;99799.88;;;15.34;98.46
75942;BME280;64622;46.220;19.878;2023-04-24T09:28:31;99785.56;;;15.34;97.64
75942;BME280;64622;46.220;19.878;2023-04-24T09:31:15;99789.78;;;15.56;97.67
75942;BME280;64622;46.220;19.878;2023-04-24T09:33:57;99791.69;;;15.62;96.68
75942;BME280;64622;46.220;19.878;2023-04-24T09:36:32;99782.97;;;15.73;95.07
75942;BME280;64622;46.220;19.878;2023-04-24T09:39:04;99794.63;;;15.80;95.49
75942;BME280;64622;46.220;19.878;2023-04-24T09:41:32;99786.13;;;15.89;95.31
75942;BME280;64622;46.220;19.878;2023-04-24T09:44:15;99795.06;;;15.83;93.85
75942;BME280;64622;46.220;19.878;2023-04-24T09:46:44;99787.63;;;16.05;93.94
75942;BME280;64622;46.220;19.878;2023-04-24T09:49:14;99792.12;;;15.72;95.15
75942;BME280;64622;46.220;19.878;2023-04-24T09:51:43;99798.56;;;15.77;96.38
75942;BME280;64622;46.220;19.878;2023-04-24T09:54:21;99798.50;;;15.58;94.30
75942;BME280;64622;46.220;19.878;2023-04-24T09:56:50;99790.75;;;15.35;95.80
75942;BME280;64622;46.220;19.878;2023-04-24T09:59:19;99788.19;;;15.81;96.78
75942;BME280;64622;46.220;19.878;2023-04-24T10:01:46;99790.75;;;16.15;98.17
75942;BME280;64622;46.220;19.878;2023-04-24T10:04:20;99781.53;;;15.77;96.91
75942;BME280;64622;46.220;19.878;2023-04-24T10:06:48;99790.31;;;15.98;95.55
75942;BME280;64622;46.220;19.878;2023-04-24T10:09:19;99786.16;;;16.15;96.83
75942;BME280;64622;46.220;19.878;2023-04-24T10:11:49;99790.94;;;16.13;97.20
75942;BME280;64622;46.220;19.878;2023-04-24T10:14:19;99791.31;;;15.84;96.31
75942;BME280;64622;46.220;19.878;2023-04-24T10:16:52;99792.53;;;15.62;97.04
75942;BME280;64622;46.220;19.878;2023-04-24T10:19:19;99790.84;;;15.61;99.97
75942;BME280;64622;46.220;19.878;2023-04-24T10:21:46;99795.13;;;15.36;100.00
75942;BME280;64622;46.220;19.878;2023-04-24T10:24:17;99784.06;;;15.25;100.00
75942;BME280;64622;46.220;19.878;2023-04-24T10:26:45;99793.94;;;15.18;100.00
75942;BME280;64622;46.220;19.878;2023-04-24T10:29:16;99784.84;;;15.19;100.00
75942;BME280;64622;46.220;19.878;2023-04-24T10:31:43;99784.03;;;14.84;100.00
75942;BME280;64622;46.220;19.878;2023-04-24T10:34:13;99784.41;;;14.75;100.00
75942;BME280;64622;46.220;19.878;2023-04-24T10:36:44;99785.22;;;14.75;100.00
75942;BME280;64622;46.220;19.878;2023-04-24T10:39:13;99774.59;;;14.67;100.00
75942;BME280;64622;46.220;19.878;2023-04-24T10:41:44;99780.97;;;14.60;100.00
75942;BME280;64622;46.220;19.878;2023-04-24T10:44:14;99778.66;;;14.57;100.00
75942;BME280;64622;46.220;19.878;2023-04-24T10:46:46;99775.25;;;14.42;100.00
75942;BME280;64622;46.220;19.878;2023-04-24T10:49:14;99771.38;;;14.51;100.00
75942;BME280;64622;46.220;19.878;2023-04-24T10:51:51;99769.91;;;14.48;100.00
75942;BME280;64622;46.220;19.878;2023-04-24T10:54:26;99775.06;;;14.43;100.00
75942;BME280;64622;46.220;19.878;2023-04-24T11:00:18;99790.78;;;14.40;100.00
75942;BME280;64622;46.220;19.878;2023-04-24T11:02:47;99776.91;;;14.43;100.00
75942;BME280;64622;46.220;19.878;2023-04-24T11:05:20;99778.84;;;14.55;100.00
75942;BME280;64622;46.220;19.878;2023-04-24T11:08:15;99780.94;;;14.53;100.00
75942;BME280;64622;46.220;19.878;2023-04-24T11:10:59;99778.13;;;14.40;100.00
75942;BME280;64622;46.220;19.878;2023-04-24T11:14:01;99773.37;;;14.70;100.00
75942;BME280;64622;46.220;19.878;2023-04-24T11:19:21;99757.78;;;14.31;100.00
75942;BME280;64622;46.220;19.878;2023-04-24T11:21:59;99769.56;;;14.58;100.00
75942;BME280;64622;46.220;19.878;2023-04-24T11:24:48;99764.00;;;14.32;100.00
75942;BME280;64622;46.220;19.878;2023-04-24T11:27:18;99756.50;;;14.55;100.00
75942;BME280;64622;46.220;19.878;2023-04-24T11:35:00;99740.84;;;14.37;100.00
75942;BME280;64622;46.220;19.878;2023-04-24T11:37:36;99746.00;;;14.32;100.00
75942;BME280;64622;46.220;19.878;2023-04-24T11:40:09;99745.50;;;14.50;100.00
75942;BME280;64622;46.220;19.878;2023-04-24T11:42:38;99744.16;;;14.39;100.00
75942;BME280;64622;46.220;19.878;2023-04-24T11:45:13;99739.44;;;14.48;100.00
75942;BME280;64622;46.220;19.878;2023-04-24T11:47:41;99739.75;;;14.32;100.00
75942;BME280;64622;46.220;19.878;2023-04-24T11:50:10;99746.38;;;14.29;100.00
75942;BME280;64622;46.220;19.878;2023-04-24T11:52:49;99748.00;;;14.58;100.00
75942;BME280;64622;46.220;19.878;2023-04-24T11:57:43;99749.69;;;14.59;100.00
75942;BME280;64622;46.220;19.878;2023-04-24T12:02:45;99750.44;;;14.80;100.00
75942;BME280;64622;46.220;19.878;2023-04-24T12:05:26;99733.44;;;14.80;100.00
75942;BME280;64622;46.220;19.878;2023-04-24T12:07:54;99747.72;;;14.74;100.00
75942;BME280;64622;46.220;19.878;2023-04-24T12:10:22;99735.16;;;14.53;100.00
75942;BME280;64622;46.220;19.878;2023-04-24T12:12:49;99740.72;;;14.86;100.00
75942;BME280;64622;46.220;19.878;2023-04-24T12:15:19;99741.37;;;14.54;100.00
75942;BME280;64622;46.220;19.878;2023-04-24T12:17:46;99722.97;;;14.57;100.00
75942;BME280;64622;46.220;19.878;2023-04-24T12:20:14;99725.31;;;14.73;100.00
75942;BME280;64622;46.220;19.878;2023-04-24T12:22:48;99731.47;;;14.61;100.00
75942;BME280;64622;46.220;19.878;2023-04-24T12:25:17;99724.47;;;14.73;100.00
75942;BME280;64622;46.220;19.878;2023-04-24T12:30:26;99722.78;;;14.65;100.00
75942;BME280;64622;46.220;19.878;2023-04-24T12:32:57;99716.06;;;14.48;100.00
75942;BME280;64622;46.220;19.878;2023-04-24T12:35:27;99719.25;;;14.31;100.00
75942;BME280;64622;46.220;19.878;2023-04-24T12:37:53;99715.38;;;14.40;100.00
75942;BME280;64622;46.220;19.878;2023-04-24T12:40:21;99713.06;;;14.37;100.00
75942;BME280;64622;46.220;19.878;2023-04-24T12:42:49;99699.38;;;14.32;100.00
75942;BME280;64622;46.220;19.878;2023-04-24T12:45:17;99708.91;;;14.34;100.00
75942;BME280;64622;46.220;19.878;2023-04-24T12:47:45;99701.59;;;14.22;100.00
75942;BME280;64622;46.220;19.878;2023-04-24T12:50:14;99702.63;;;14.21;100.00
75942;BME280;64622;46.220;19.878;2023-04-24T12:52:42;99700.78;;;14.28;100.00
75942;BME280;64622;46.220;19.878;2023-04-24T12:55:10;99700.03;;;14.40;100.00
75942;BME280;64622;46.220;19.878;2023-04-24T12:57:39;99692.75;;;14.34;100.00
75942;BME280;64622;46.220;19.878;2023-04-24T13:00:07;99693.63;;;14.35;100.00
75942;BME280;64622;46.220;19.878;2023-04-24T13:02:35;99688.50;;;14.46;100.00
75942;BME280;64622;46.220;19.878;2023-04-24T13:05:02;99684.88;;;14.67;100.00
75942;BME280;64622;46.220;19.878;2023-04-24T13:07:29;99687.19;;;14.70;100.00